sensor_id;sensor_type;location;lat;lon;timestamp;P1;durP1;ratioP1;P2;durP2;ratioP2
10387;SDS011;5240;51.128;4.566;2023-07-31T00:02:02;14.20;;;5.75;;
10387;SDS011;5240;51.128;4.566;2023-07-31T00:04:29;12.38;;;5.05;;
10387;SDS011;5240;51.128;4.566;2023-07-31T00:06:56;13.27;;;5.70;;
10387;SDS011;5240;51.128;4.566;2023-07-31T00:09:23;13.18;;;5.47;;
10387;SDS011;5240;51.128;4.566;2023-07-31T00:11:50;13.13;;;6.10;;
10387;SDS011;5240;51.128;4.566;2023-07-31T00:14:19;17.30;;;6.43;;
10387;SDS011;5240;51.128;4.566;2023-07-31T00:16:46;14.10;;;5.70;;
10387;SDS011;5240;51.128;4.566;2023-07-31T00:19:13;17.77;;;6.97;;
10387;SDS011;5240;51.128;4.566;2023-07-31T00:21:40;17.77;;;6.22;;
10387;SDS011;5240;51.128;4.566;2023-07-31T00:24:07;17.48;;;6.10;;
10387;SDS011;5240;51.128;4.566;2023-07-31T00:26:34;17.00;;;6.60;;
10387;SDS011;5240;51.128;4.566;2023-07-31T00:29:01;15.88;;;6.03;;
10387;SDS011;5240;51.128;4.566;2023-07-31T00:31:29;18.52;;;6.18;;
10387;SDS011;5240;51.128;4.566;2023-07-31T00:33:56;16.17;;;6.35;;
10387;SDS011;5240;51.128;4.566;2023-07-31T00:36:23;19.77;;;6.50;;
10387;SDS011;5240;51.128;4.566;2023-07-31T00:38:50;17.73;;;6.55;;
10387;SDS011;5240;51.128;4.566;2023-07-31T00:41:17;12.43;;;6.30;;
10387;SDS011;5240;51.128;4.566;2023-07-31T00:43:44;14.27;;;5.65;;
10387;SDS011;5240;51.128;4.566;2023-07-31T00:46:11;16.40;;;5.85;;
10387;SDS011;5240;51.128;4.566;2023-07-31T00:48:39;15.15;;;6.45;;
10387;SDS011;5240;51.128;4.566;2023-07-31T00:51:07;14.50;;;6.07;;
10387;SDS011;5240;51.128;4.566;2023-07-31T00:53:34;14.50;;;6.65;;
10387;SDS011;5240;51.128;4.566;2023-07-31T00:56:02;20.23;;;6.80;;
10387;SDS011;5240;51.128;4.566;2023-07-31T00:58:30;13.43;;;6.18;;
10387;SDS011;5240;51.128;4.566;2023-07-31T01:00:57;13.95;;;6.28;;
10387;SDS011;5240;51.128;4.566;2023-07-31T01:03:24;13.52;;;5.80;;
10387;SDS011;5240;51.128;4.566;2023-07-31T01:05:56;13.98;;;6.60;;
10387;SDS011;5240;51.128;4.566;2023-07-31T01:08:35;11.75;;;6.00;;
10387;SDS011;5240;51.128;4.566;2023-07-31T01:11:11;14.55;;;6.22;;
10387;SDS011;5240;51.128;4.566;2023-07-31T01:13:42;14.40;;;6.13;;
10387;SDS011;5240;51.128;4.566;2023-07-31T01:16:10;13.00;;;6.00;;
10387;SDS011;5240;51.128;4.566;2023-07-31T01:18:37;14.38;;;5.80;;
10387;SDS011;5240;51.128;4.566;2023-07-31T01:21:11;14.88;;;6.43;;
10387;SDS011;5240;51.128;4.566;2023-07-31T01:23:51;14.60;;;6.03;;
10387;SDS011;5240;51.128;4.566;2023-07-31T01:26:36;15.82;;;6.78;;
10387;SDS011;5240;51.128;4.566;2023-07-31T01:29:07;17.85;;;7.15;;
10387;SDS011;5240;51.128;4.566;2023-07-31T01:31:36;13.60;;;7.10;;
10387;SDS011;5240;51.128;4.566;2023-07-31T01:34:05;13.43;;;6.47;;
10387;SDS011;5240;51.128;4.566;2023-07-31T01:36:35;15.57;;;7.25;;
10387;SDS011;5240;51.128;4.566;2023-07-31T01:39:02;14.18;;;6.90;;
10387;SDS011;5240;51.128;4.566;2023-07-31T01:41:30;14.23;;;7.10;;
10387;SDS011;5240;51.128;4.566;2023-07-31T01:43:58;14.45;;;6.85;;
10387;SDS011;5240;51.128;4.566;2023-07-31T01:46:25;19.20;;;7.00;;
10387;SDS011;5240;51.128;4.566;2023-07-31T01:48:52;18.40;;;7.45;;
10387;SDS011;5240;51.128;4.566;2023-07-31T01:51:19;15.23;;;6.75;;
10387;SDS011;5240;51.128;4.566;2023-07-31T01:53:46;15.60;;;6.60;;
10387;SDS011;5240;51.128;4.566;2023-07-31T01:56:13;18.17;;;6.35;;
10387;SDS011;5240;51.128;4.566;2023-07-31T01:58:40;18.52;;;6.68;;
10387;SDS011;5240;51.128;4.566;2023-07-31T02:01:08;18.83;;;6.53;;
10387;SDS011;5240;51.128;4.566;2023-07-31T02:03:35;12.95;;;6.30;;
10387;SDS011;5240;51.128;4.566;2023-07-31T02:06:02;14.45;;;6.30;;
10387;SDS011;5240;51.128;4.566;2023-07-31T02:08:29;12.95;;;6.05;;
10387;SDS011;5240;51.128;4.566;2023-07-31T02:10:56;15.23;;;6.43;;
10387;SDS011;5240;51.128;4.566;2023-07-31T02:13:23;11.10;;;6.00;;
10387;SDS011;5240;51.128;4.566;2023-07-31T02:15:50;15.38;;;6.28;;
10387;SDS011;5240;51.128;4.566;2023-07-31T02:18:18;21.25;;;6.88;;
10387;SDS011;5240;51.128;4.566;2023-07-31T02:20:48;19.67;;;7.13;;
10387;SDS011;5240;51.128;4.566;2023-07-31T02:23:16;15.13;;;7.03;;
10387;SDS011;5240;51.128;4.566;2023-07-31T02:25:43;19.88;;;6.20;;
10387;SDS011;5240;51.128;4.566;2023-07-31T02:28:10;17.63;;;6.38;;
10387;SDS011;5240;51.128;4.566;2023-07-31T02:30:38;13.07;;;6.05;;
10387;SDS011;5240;51.128;4.566;2023-07-31T02:33:05;18.58;;;5.93;;
10387;SDS011;5240;51.128;4.566;2023-07-31T02:35:33;15.05;;;5.75;;
10387;SDS011;5240;51.128;4.566;2023-07-31T02:38:00;13.40;;;6.03;;
10387;SDS011;5240;51.128;4.566;2023-07-31T02:40:27;12.50;;;6.28;;
10387;SDS011;5240;51.128;4.566;2023-07-31T02:42:54;13.80;;;6.30;;
10387;SDS011;5240;51.128;4.566;2023-07-31T02:45:21;15.75;;;6.10;;
10387;SDS011;5240;51.128;4.566;2023-07-31T02:47:48;13.23;;;5.25;;
10387;SDS011;5240;51.128;4.566;2023-07-31T02:50:15;14.30;;;6.22;;
10387;SDS011;5240;51.128;4.566;2023-07-31T02:52:43;13.57;;;5.93;;
10387;SDS011;5240;51.128;4.566;2023-07-31T02:55:10;15.50;;;6.50;;
10387;SDS011;5240;51.128;4.566;2023-07-31T02:57:37;14.00;;;6.13;;
10387;SDS011;5240;51.128;4.566;2023-07-31T03:00:05;11.70;;;5.43;;
10387;SDS011;5240;51.128;4.566;2023-07-31T03:02:32;12.88;;;5.97;;
10387;SDS011;5240;51.128;4.566;2023-07-31T03:04:59;11.27;;;5.03;;
10387;SDS011;5240;51.128;4.566;2023-07-31T03:07:26;13.80;;;5.53;;
10387;SDS011;5240;51.128;4.566;2023-07-31T03:09:55;14.73;;;5.97;;
10387;SDS011;5240;51.128;4.566;2023-07-31T03:12:22;17.48;;;6.00;;
10387;SDS011;5240;51.128;4.566;2023-07-31T03:14:49;11.80;;;5.50;;
10387;SDS011;5240;51.128;4.566;2023-07-31T03:17:16;13.18;;;6.55;;
10387;SDS011;5240;51.128;4.566;2023-07-31T03:19:43;14.23;;;6.18;;
10387;SDS011;5240;51.128;4.566;2023-07-31T03:22:10;13.13;;;5.65;;
10387;SDS011;5240;51.128;4.566;2023-07-31T03:24:37;16.27;;;6.05;;
10387;SDS011;5240;51.128;4.566;2023-07-31T03:27:06;11.75;;;5.65;;
10387;SDS011;5240;51.128;4.566;2023-07-31T03:29:33;16.38;;;5.85;;
10387;SDS011;5240;51.128;4.566;2023-07-31T03:32:00;13.77;;;5.78;;
10387;SDS011;5240;51.128;4.566;2023-07-31T03:34:27;12.23;;;5.85;;
10387;SDS011;5240;51.128;4.566;2023-07-31T03:36:54;14.57;;;6.85;;
10387;SDS011;5240;51.128;4.566;2023-07-31T03:39:21;12.00;;;5.95;;
10387;SDS011;5240;51.128;4.566;2023-07-31T03:41:48;11.45;;;6.07;;
10387;SDS011;5240;51.128;4.566;2023-07-31T03:44:16;14.15;;;6.03;;
10387;SDS011;5240;51.128;4.566;2023-07-31T03:46:43;15.82;;;6.63;;
10387;SDS011;5240;51.128;4.566;2023-07-31T03:49:10;15.98;;;6.47;;
10387;SDS011;5240;51.128;4.566;2023-07-31T03:51:37;10.23;;;6.20;;
10387;SDS011;5240;51.128;4.566;2023-07-31T03:54:04;10.95;;;5.90;;
10387;SDS011;5240;51.128;4.566;2023-07-31T03:56:32;11.60;;;5.55;;
10387;SDS011;5240;51.128;4.566;2023-07-31T03:58:59;9.85;;;5.70;;
10387;SDS011;5240;51.128;4.566;2023-07-31T04:01:28;11.60;;;5.88;;
10387;SDS011;5240;51.128;4.566;2023-07-31T04:03:55;10.52;;;6.15;;
10387;SDS011;5240;51.128;4.566;2023-07-31T04:06:22;9.77;;;5.90;;
10387;SDS011;5240;51.128;4.566;2023-07-31T04:08:49;10.93;;;5.97;;
10387;SDS011;5240;51.128;4.566;2023-07-31T04:11:16;9.38;;;5.50;;
10387;SDS011;5240;51.128;4.566;2023-07-31T04:13:43;11.38;;;5.70;;
10387;SDS011;5240;51.128;4.566;2023-07-31T04:16:10;10.27;;;5.65;;
10387;SDS011;5240;51.128;4.566;2023-07-31T04:18:38;12.52;;;5.88;;
10387;SDS011;5240;51.128;4.566;2023-07-31T04:21:05;9.40;;;5.57;;
10387;SDS011;5240;51.128;4.566;2023-07-31T04:23:32;8.85;;;5.60;;
10387;SDS011;5240;51.128;4.566;2023-07-31T04:25:59;13.23;;;6.03;;
10387;SDS011;5240;51.128;4.566;2023-07-31T04:28:26;9.32;;;6.03;;
10387;SDS011;5240;51.128;4.566;2023-07-31T04:30:53;9.48;;;5.95;;
10387;SDS011;5240;51.128;4.566;2023-07-31T04:33:20;9.45;;;5.65;;
10387;SDS011;5240;51.128;4.566;2023-07-31T04:35:52;11.98;;;6.00;;
10387;SDS011;5240;51.128;4.566;2023-07-31T04:38:19;15.23;;;7.75;;
10387;SDS011;5240;51.128;4.566;2023-07-31T04:40:47;12.02;;;6.65;;
10387;SDS011;5240;51.128;4.566;2023-07-31T04:43:14;12.15;;;6.80;;
10387;SDS011;5240;51.128;4.566;2023-07-31T04:45:42;11.00;;;6.13;;
10387;SDS011;5240;51.128;4.566;2023-07-31T04:48:12;11.80;;;6.68;;
10387;SDS011;5240;51.128;4.566;2023-07-31T04:50:39;12.95;;;6.75;;
10387;SDS011;5240;51.128;4.566;2023-07-31T04:53:07;10.68;;;5.93;;
10387;SDS011;5240;51.128;4.566;2023-07-31T04:55:34;10.77;;;5.88;;
10387;SDS011;5240;51.128;4.566;2023-07-31T04:58:01;9.48;;;5.72;;
10387;SDS011;5240;51.128;4.566;2023-07-31T05:00:28;10.07;;;6.18;;
10387;SDS011;5240;51.128;4.566;2023-07-31T05:02:55;8.70;;;5.65;;
10387;SDS011;5240;51.128;4.566;2023-07-31T05:05:22;10.75;;;5.85;;
10387;SDS011;5240;51.128;4.566;2023-07-31T05:07:49;9.02;;;5.75;;
10387;SDS011;5240;51.128;4.566;2023-07-31T05:10:18;7.82;;;6.13;;
10387;SDS011;5240;51.128;4.566;2023-07-31T05:12:45;11.20;;;6.13;;
10387;SDS011;5240;51.128;4.566;2023-07-31T05:15:12;8.65;;;6.05;;
10387;SDS011;5240;51.128;4.566;2023-07-31T05:17:39;14.80;;;6.60;;
10387;SDS011;5240;51.128;4.566;2023-07-31T05:20:06;11.43;;;6.22;;
10387;SDS011;5240;51.128;4.566;2023-07-31T05:22:34;9.02;;;6.03;;
10387;SDS011;5240;51.128;4.566;2023-07-31T05:25:01;10.27;;;6.40;;
10387;SDS011;5240;51.128;4.566;2023-07-31T05:27:31;7.40;;;5.93;;
10387;SDS011;5240;51.128;4.566;2023-07-31T05:29:58;10.27;;;6.50;;
10387;SDS011;5240;51.128;4.566;2023-07-31T05:32:25;9.50;;;6.25;;
10387;SDS011;5240;51.128;4.566;2023-07-31T05:34:52;12.07;;;6.40;;
10387;SDS011;5240;51.128;4.566;2023-07-31T05:37:19;11.60;;;6.80;;
10387;SDS011;5240;51.128;4.566;2023-07-31T05:39:47;9.52;;;6.15;;
10387;SDS011;5240;51.128;4.566;2023-07-31T05:42:14;8.25;;;6.07;;
10387;SDS011;5240;51.128;4.566;2023-07-31T05:44:42;9.57;;;6.22;;
10387;SDS011;5240;51.128;4.566;2023-07-31T05:47:10;7.53;;;6.15;;
10387;SDS011;5240;51.128;4.566;2023-07-31T05:49:37;8.05;;;6.35;;
10387;SDS011;5240;51.128;4.566;2023-07-31T05:52:04;11.40;;;6.95;;
10387;SDS011;5240;51.128;4.566;2023-07-31T05:54:31;9.57;;;6.40;;
10387;SDS011;5240;51.128;4.566;2023-07-31T05:56:58;8.10;;;6.57;;
10387;SDS011;5240;51.128;4.566;2023-07-31T05:59:25;10.27;;;7.03;;
10387;SDS011;5240;51.128;4.566;2023-07-31T06:01:54;8.82;;;6.30;;
10387;SDS011;5240;51.128;4.566;2023-07-31T06:04:21;8.18;;;5.82;;
10387;SDS011;5240;51.128;4.566;2023-07-31T06:06:50;9.48;;;6.72;;
10387;SDS011;5240;51.128;4.566;2023-07-31T06:09:17;9.05;;;6.35;;
10387;SDS011;5240;51.128;4.566;2023-07-31T06:11:45;9.88;;;6.28;;
10387;SDS011;5240;51.128;4.566;2023-07-31T06:14:11;8.40;;;6.03;;
10387;SDS011;5240;51.128;4.566;2023-07-31T06:16:38;12.18;;;6.25;;
10387;SDS011;5240;51.128;4.566;2023-07-31T06:19:06;8.93;;;6.45;;
10387;SDS011;5240;51.128;4.566;2023-07-31T06:21:33;8.15;;;6.00;;
10387;SDS011;5240;51.128;4.566;2023-07-31T06:24:02;10.30;;;6.32;;
10387;SDS011;5240;51.128;4.566;2023-07-31T06:26:29;12.50;;;5.72;;
10387;SDS011;5240;51.128;4.566;2023-07-31T06:28:56;10.85;;;6.05;;
10387;SDS011;5240;51.128;4.566;2023-07-31T06:31:23;9.23;;;5.78;;
10387;SDS011;5240;51.128;4.566;2023-07-31T06:33:50;8.30;;;5.20;;
10387;SDS011;5240;51.128;4.566;2023-07-31T06:36:19;11.90;;;5.63;;
10387;SDS011;5240;51.128;4.566;2023-07-31T06:38:46;11.77;;;5.80;;
10387;SDS011;5240;51.128;4.566;2023-07-31T06:41:13;10.07;;;5.40;;
10387;SDS011;5240;51.128;4.566;2023-07-31T06:43:40;7.65;;;5.22;;
10387;SDS011;5240;51.128;4.566;2023-07-31T06:46:07;9.48;;;5.63;;
10387;SDS011;5240;51.128;4.566;2023-07-31T06:48:35;8.90;;;5.00;;
10387;SDS011;5240;51.128;4.566;2023-07-31T06:51:03;8.23;;;5.75;;
10387;SDS011;5240;51.128;4.566;2023-07-31T06:53:31;10.13;;;5.45;;
10387;SDS011;5240;51.128;4.566;2023-07-31T06:55:58;10.80;;;5.43;;
10387;SDS011;5240;51.128;4.566;2023-07-31T06:58:25;6.28;;;4.53;;
10387;SDS011;5240;51.128;4.566;2023-07-31T07:00:52;10.13;;;5.72;;
10387;SDS011;5240;51.128;4.566;2023-07-31T07:03:19;11.50;;;5.88;;
10387;SDS011;5240;51.128;4.566;2023-07-31T07:05:46;7.00;;;5.10;;
10387;SDS011;5240;51.128;4.566;2023-07-31T07:08:13;7.55;;;5.10;;
10387;SDS011;5240;51.128;4.566;2023-07-31T07:10:41;9.30;;;5.45;;
10387;SDS011;5240;51.128;4.566;2023-07-31T07:13:08;8.68;;;5.47;;
10387;SDS011;5240;51.128;4.566;2023-07-31T07:15:35;10.75;;;4.90;;
10387;SDS011;5240;51.128;4.566;2023-07-31T07:18:02;10.32;;;5.78;;
10387;SDS011;5240;51.128;4.566;2023-07-31T07:20:29;9.35;;;5.35;;
10387;SDS011;5240;51.128;4.566;2023-07-31T07:22:57;13.05;;;5.07;;
10387;SDS011;5240;51.128;4.566;2023-07-31T07:25:24;9.48;;;4.90;;
10387;SDS011;5240;51.128;4.566;2023-07-31T07:27:52;6.20;;;4.95;;
10387;SDS011;5240;51.128;4.566;2023-07-31T07:30:19;8.38;;;5.20;;
10387;SDS011;5240;51.128;4.566;2023-07-31T07:32:46;7.80;;;4.85;;
10387;SDS011;5240;51.128;4.566;2023-07-31T07:35:13;10.70;;;4.90;;
10387;SDS011;5240;51.128;4.566;2023-07-31T07:37:40;9.20;;;5.22;;
10387;SDS011;5240;51.128;4.566;2023-07-31T07:40:08;10.75;;;5.22;;
10387;SDS011;5240;51.128;4.566;2023-07-31T07:42:35;10.55;;;5.45;;
10387;SDS011;5240;51.128;4.566;2023-07-31T07:45:04;7.45;;;5.00;;
10387;SDS011;5240;51.128;4.566;2023-07-31T07:47:32;8.52;;;5.38;;
10387;SDS011;5240;51.128;4.566;2023-07-31T07:49:59;6.65;;;4.53;;
10387;SDS011;5240;51.128;4.566;2023-07-31T07:52:26;7.72;;;5.15;;
10387;SDS011;5240;51.128;4.566;2023-07-31T07:54:53;12.82;;;4.97;;
10387;SDS011;5240;51.128;4.566;2023-07-31T07:57:20;6.60;;;4.30;;
10387;SDS011;5240;51.128;4.566;2023-07-31T07:59:50;6.72;;;4.55;;
10387;SDS011;5240;51.128;4.566;2023-07-31T08:02:18;8.73;;;5.22;;
10387;SDS011;5240;51.128;4.566;2023-07-31T08:04:45;8.65;;;4.35;;
10387;SDS011;5240;51.128;4.566;2023-07-31T08:07:12;9.43;;;4.40;;
10387;SDS011;5240;51.128;4.566;2023-07-31T08:09:39;10.18;;;5.30;;
10387;SDS011;5240;51.128;4.566;2023-07-31T08:12:07;10.85;;;4.82;;
10387;SDS011;5240;51.128;4.566;2023-07-31T08:14:34;7.45;;;4.35;;
10387;SDS011;5240;51.128;4.566;2023-07-31T08:17:01;7.80;;;5.13;;
10387;SDS011;5240;51.128;4.566;2023-07-31T08:19:30;13.00;;;4.70;;
10387;SDS011;5240;51.128;4.566;2023-07-31T08:21:57;5.30;;;4.13;;
10387;SDS011;5240;51.128;4.566;2023-07-31T08:24:24;6.00;;;4.00;;
10387;SDS011;5240;51.128;4.566;2023-07-31T08:26:51;8.88;;;4.57;;
10387;SDS011;5240;51.128;4.566;2023-07-31T08:29:18;8.27;;;4.47;;
10387;SDS011;5240;51.128;4.566;2023-07-31T08:31:45;6.68;;;4.43;;
10387;SDS011;5240;51.128;4.566;2023-07-31T08:34:13;6.43;;;4.18;;
10387;SDS011;5240;51.128;4.566;2023-07-31T08:36:41;6.82;;;4.00;;
10387;SDS011;5240;51.128;4.566;2023-07-31T08:39:09;8.88;;;3.88;;
10387;SDS011;5240;51.128;4.566;2023-07-31T08:41:37;8.05;;;4.07;;
10387;SDS011;5240;51.128;4.566;2023-07-31T08:44:05;6.50;;;4.10;;
10387;SDS011;5240;51.128;4.566;2023-07-31T08:46:34;7.35;;;4.20;;
10387;SDS011;5240;51.128;4.566;2023-07-31T08:49:02;8.48;;;4.15;;
10387;SDS011;5240;51.128;4.566;2023-07-31T08:51:32;6.35;;;4.20;;
10387;SDS011;5240;51.128;4.566;2023-07-31T08:54:01;5.65;;;3.70;;
10387;SDS011;5240;51.128;4.566;2023-07-31T08:56:30;5.88;;;3.85;;
10387;SDS011;5240;51.128;4.566;2023-07-31T08:58:58;3.78;;;3.15;;
10387;SDS011;5240;51.128;4.566;2023-07-31T09:01:28;6.78;;;3.65;;
10387;SDS011;5240;51.128;4.566;2023-07-31T09:03:56;3.95;;;3.60;;
10387;SDS011;5240;51.128;4.566;2023-07-31T09:06:25;5.80;;;3.67;;
10387;SDS011;5240;51.128;4.566;2023-07-31T09:08:54;8.02;;;4.10;;
10387;SDS011;5240;51.128;4.566;2023-07-31T09:11:23;9.32;;;3.92;;
10387;SDS011;5240;51.128;4.566;2023-07-31T09:13:50;5.65;;;3.28;;
10387;SDS011;5240;51.128;4.566;2023-07-31T09:16:18;5.38;;;3.75;;
10387;SDS011;5240;51.128;4.566;2023-07-31T09:18:53;5.65;;;3.78;;
10387;SDS011;5240;51.128;4.566;2023-07-31T09:21:21;6.03;;;3.58;;
10387;SDS011;5240;51.128;4.566;2023-07-31T09:23:49;7.53;;;3.67;;
10387;SDS011;5240;51.128;4.566;2023-07-31T09:26:31;5.22;;;3.72;;
10387;SDS011;5240;51.128;4.566;2023-07-31T09:29:00;8.45;;;3.95;;
10387;SDS011;5240;51.128;4.566;2023-07-31T09:31:33;6.82;;;3.95;;
10387;SDS011;5240;51.128;4.566;2023-07-31T09:34:07;5.80;;;3.65;;
10387;SDS011;5240;51.128;4.566;2023-07-31T09:36:39;8.63;;;4.20;;
10387;SDS011;5240;51.128;4.566;2023-07-31T09:39:08;6.85;;;4.20;;
10387;SDS011;5240;51.128;4.566;2023-07-31T09:41:38;7.00;;;4.28;;
10387;SDS011;5240;51.128;4.566;2023-07-31T09:44:05;8.07;;;4.60;;
10387;SDS011;5240;51.128;4.566;2023-07-31T09:46:34;7.03;;;4.07;;
10387;SDS011;5240;51.128;4.566;2023-07-31T09:49:05;7.05;;;4.50;;
10387;SDS011;5240;51.128;4.566;2023-07-31T09:51:34;6.05;;;4.35;;
10387;SDS011;5240;51.128;4.566;2023-07-31T09:54:04;8.15;;;4.18;;
10387;SDS011;5240;51.128;4.566;2023-07-31T09:56:44;9.45;;;4.82;;
10387;SDS011;5240;51.128;4.566;2023-07-31T09:59:13;7.35;;;4.50;;
10387;SDS011;5240;51.128;4.566;2023-07-31T10:01:42;6.13;;;4.47;;
10387;SDS011;5240;51.128;4.566;2023-07-31T10:04:11;8.43;;;4.53;;
10387;SDS011;5240;51.128;4.566;2023-07-31T10:06:39;7.43;;;4.63;;
10387;SDS011;5240;51.128;4.566;2023-07-31T10:09:08;5.90;;;3.63;;
10387;SDS011;5240;51.128;4.566;2023-07-31T10:11:38;4.90;;;3.63;;
10387;SDS011;5240;51.128;4.566;2023-07-31T10:14:11;4.93;;;3.63;;
10387;SDS011;5240;51.128;4.566;2023-07-31T10:16:39;3.50;;;2.97;;
10387;SDS011;5240;51.128;4.566;2023-07-31T10:19:08;4.57;;;3.00;;
10387;SDS011;5240;51.128;4.566;2023-07-31T10:21:36;5.18;;;3.15;;
10387;SDS011;5240;51.128;4.566;2023-07-31T10:24:05;5.78;;;2.78;;
10387;SDS011;5240;51.128;4.566;2023-07-31T10:26:33;4.75;;;2.80;;
10387;SDS011;5240;51.128;4.566;2023-07-31T10:29:04;4.43;;;3.10;;
10387;SDS011;5240;51.128;4.566;2023-07-31T10:31:33;6.50;;;3.45;;
10387;SDS011;5240;51.128;4.566;2023-07-31T10:34:01;4.00;;;3.50;;
10387;SDS011;5240;51.128;4.566;2023-07-31T10:36:29;5.35;;;3.42;;
10387;SDS011;5240;51.128;4.566;2023-07-31T10:38:57;6.00;;;3.70;;
10387;SDS011;5240;51.128;4.566;2023-07-31T10:41:28;6.25;;;3.75;;
10387;SDS011;5240;51.128;4.566;2023-07-31T10:43:57;10.23;;;4.07;;
10387;SDS011;5240;51.128;4.566;2023-07-31T10:46:24;6.10;;;3.65;;
10387;SDS011;5240;51.128;4.566;2023-07-31T10:48:58;5.93;;;3.90;;
10387;SDS011;5240;51.128;4.566;2023-07-31T10:51:32;5.93;;;4.07;;
10387;SDS011;5240;51.128;4.566;2023-07-31T10:56:49;6.22;;;3.92;;
10387;SDS011;5240;51.128;4.566;2023-07-31T10:59:18;6.90;;;4.32;;
10387;SDS011;5240;51.128;4.566;2023-07-31T11:01:51;7.50;;;4.68;;
10387;SDS011;5240;51.128;4.566;2023-07-31T11:04:23;7.80;;;4.80;;
10387;SDS011;5240;51.128;4.566;2023-07-31T11:06:57;11.23;;;4.93;;
10387;SDS011;5240;51.128;4.566;2023-07-31T11:09:27;6.65;;;4.57;;
10387;SDS011;5240;51.128;4.566;2023-07-31T11:11:56;6.57;;;4.70;;
10387;SDS011;5240;51.128;4.566;2023-07-31T11:14:23;7.00;;;4.70;;
10387;SDS011;5240;51.128;4.566;2023-07-31T11:16:50;7.72;;;4.80;;
10387;SDS011;5240;51.128;4.566;2023-07-31T11:19:22;10.65;;;5.32;;
10387;SDS011;5240;51.128;4.566;2023-07-31T11:21:50;7.35;;;4.65;;
10387;SDS011;5240;51.128;4.566;2023-07-31T11:24:19;7.47;;;4.80;;
10387;SDS011;5240;51.128;4.566;2023-07-31T11:26:49;7.07;;;5.07;;
10387;SDS011;5240;51.128;4.566;2023-07-31T11:29:17;8.18;;;5.18;;
10387;SDS011;5240;51.128;4.566;2023-07-31T11:31:45;7.45;;;5.63;;
10387;SDS011;5240;51.128;4.566;2023-07-31T11:34:14;8.15;;;4.90;;
10387;SDS011;5240;51.128;4.566;2023-07-31T11:36:53;9.52;;;4.88;;
10387;SDS011;5240;51.128;4.566;2023-07-31T11:39:21;7.82;;;5.05;;
10387;SDS011;5240;51.128;4.566;2023-07-31T11:41:48;8.15;;;5.25;;
10387;SDS011;5240;51.128;4.566;2023-07-31T11:44:15;7.88;;;4.97;;
10387;SDS011;5240;51.128;4.566;2023-07-31T11:46:42;7.20;;;5.03;;
10387;SDS011;5240;51.128;4.566;2023-07-31T11:49:09;7.90;;;5.25;;
10387;SDS011;5240;51.128;4.566;2023-07-31T11:51:36;8.48;;;5.57;;
10387;SDS011;5240;51.128;4.566;2023-07-31T11:54:05;8.38;;;4.95;;
10387;SDS011;5240;51.128;4.566;2023-07-31T11:56:32;8.02;;;5.15;;
10387;SDS011;5240;51.128;4.566;2023-07-31T11:59:00;8.23;;;4.85;;
10387;SDS011;5240;51.128;4.566;2023-07-31T12:01:30;10.32;;;5.20;;
10387;SDS011;5240;51.128;4.566;2023-07-31T12:03:57;7.63;;;4.95;;
10387;SDS011;5240;51.128;4.566;2023-07-31T12:06:32;6.15;;;4.97;;
10387;SDS011;5240;51.128;4.566;2023-07-31T12:09:00;9.93;;;5.07;;
10387;SDS011;5240;51.128;4.566;2023-07-31T12:11:30;9.45;;;5.88;;
10387;SDS011;5240;51.128;4.566;2023-07-31T12:13:57;6.85;;;4.93;;
10387;SDS011;5240;51.128;4.566;2023-07-31T12:16:26;6.65;;;4.70;;
10387;SDS011;5240;51.128;4.566;2023-07-31T12:18:54;10.90;;;5.28;;
10387;SDS011;5240;51.128;4.566;2023-07-31T12:21:21;11.88;;;5.65;;
10387;SDS011;5240;51.128;4.566;2023-07-31T12:23:48;11.95;;;5.70;;
10387;SDS011;5240;51.128;4.566;2023-07-31T12:26:15;10.25;;;5.30;;
10387;SDS011;5240;51.128;4.566;2023-07-31T12:28:45;7.38;;;5.20;;
10387;SDS011;5240;51.128;4.566;2023-07-31T12:31:13;9.05;;;5.13;;
10387;SDS011;5240;51.128;4.566;2023-07-31T12:33:42;10.05;;;5.45;;
10387;SDS011;5240;51.128;4.566;2023-07-31T12:36:09;11.02;;;5.22;;
10387;SDS011;5240;51.128;4.566;2023-07-31T12:38:37;10.15;;;5.20;;
10387;SDS011;5240;51.128;4.566;2023-07-31T12:41:04;10.10;;;5.18;;
10387;SDS011;5240;51.128;4.566;2023-07-31T12:43:32;8.32;;;5.32;;
10387;SDS011;5240;51.128;4.566;2023-07-31T12:46:00;9.25;;;5.40;;
10387;SDS011;5240;51.128;4.566;2023-07-31T12:48:28;9.60;;;4.90;;
10387;SDS011;5240;51.128;4.566;2023-07-31T12:50:55;7.97;;;4.88;;
10387;SDS011;5240;51.128;4.566;2023-07-31T12:53:22;7.95;;;5.18;;
10387;SDS011;5240;51.128;4.566;2023-07-31T12:55:49;8.43;;;5.20;;
10387;SDS011;5240;51.128;4.566;2023-07-31T12:58:16;9.55;;;5.00;;
10387;SDS011;5240;51.128;4.566;2023-07-31T13:00:43;7.82;;;4.82;;
10387;SDS011;5240;51.128;4.566;2023-07-31T13:03:12;8.32;;;4.90;;
10387;SDS011;5240;51.128;4.566;2023-07-31T13:05:39;9.95;;;4.60;;
10387;SDS011;5240;51.128;4.566;2023-07-31T13:08:06;10.38;;;5.00;;
10387;SDS011;5240;51.128;4.566;2023-07-31T13:10:33;9.63;;;4.63;;
10387;SDS011;5240;51.128;4.566;2023-07-31T13:13:00;7.03;;;5.07;;
10387;SDS011;5240;51.128;4.566;2023-07-31T13:15:27;9.35;;;5.00;;
10387;SDS011;5240;51.128;4.566;2023-07-31T13:17:54;9.55;;;4.63;;
10387;SDS011;5240;51.128;4.566;2023-07-31T13:20:22;8.38;;;5.00;;
10387;SDS011;5240;51.128;4.566;2023-07-31T13:22:49;8.38;;;5.07;;
10387;SDS011;5240;51.128;4.566;2023-07-31T13:25:16;8.98;;;4.65;;
10387;SDS011;5240;51.128;4.566;2023-07-31T13:27:43;10.30;;;4.53;;
10387;SDS011;5240;51.128;4.566;2023-07-31T13:30:11;7.57;;;4.60;;
10387;SDS011;5240;51.128;4.566;2023-07-31T13:32:38;7.45;;;4.28;;
10387;SDS011;5240;51.128;4.566;2023-07-31T13:35:05;7.43;;;4.40;;
10387;SDS011;5240;51.128;4.566;2023-07-31T13:37:34;7.07;;;4.40;;
10387;SDS011;5240;51.128;4.566;2023-07-31T13:40:01;5.60;;;4.10;;
10387;SDS011;5240;51.128;4.566;2023-07-31T13:42:29;8.60;;;4.15;;
10387;SDS011;5240;51.128;4.566;2023-07-31T13:44:56;7.78;;;3.90;;
10387;SDS011;5240;51.128;4.566;2023-07-31T13:47:23;6.38;;;3.85;;
10387;SDS011;5240;51.128;4.566;2023-07-31T13:49:50;5.93;;;3.95;;
10387;SDS011;5240;51.128;4.566;2023-07-31T13:52:17;5.72;;;3.28;;
10387;SDS011;5240;51.128;4.566;2023-07-31T13:54:46;5.43;;;3.33;;
10387;SDS011;5240;51.128;4.566;2023-07-31T13:57:13;5.10;;;3.30;;
10387;SDS011;5240;51.128;4.566;2023-07-31T13:59:40;5.32;;;3.40;;
10387;SDS011;5240;51.128;4.566;2023-07-31T14:02:07;5.97;;;3.10;;
10387;SDS011;5240;51.128;4.566;2023-07-31T14:04:34;3.60;;;2.88;;
10387;SDS011;5240;51.128;4.566;2023-07-31T14:07:01;5.10;;;2.90;;
10387;SDS011;5240;51.128;4.566;2023-07-31T14:09:29;3.80;;;3.10;;
10387;SDS011;5240;51.128;4.566;2023-07-31T14:11:57;3.88;;;3.10;;
10387;SDS011;5240;51.128;4.566;2023-07-31T14:14:24;4.95;;;3.10;;
10387;SDS011;5240;51.128;4.566;2023-07-31T14:16:51;5.78;;;3.15;;
10387;SDS011;5240;51.128;4.566;2023-07-31T14:19:19;3.42;;;3.10;;
10387;SDS011;5240;51.128;4.566;2023-07-31T14:21:46;6.60;;;3.40;;
10387;SDS011;5240;51.128;4.566;2023-07-31T14:24:13;6.50;;;3.28;;
10387;SDS011;5240;51.128;4.566;2023-07-31T14:26:40;4.00;;;2.95;;
10387;SDS011;5240;51.128;4.566;2023-07-31T14:29:08;4.05;;;2.80;;
10387;SDS011;5240;51.128;4.566;2023-07-31T14:31:35;3.88;;;3.13;;
10387;SDS011;5240;51.128;4.566;2023-07-31T14:34:02;5.05;;;3.10;;
10387;SDS011;5240;51.128;4.566;2023-07-31T14:36:29;4.63;;;2.78;;
10387;SDS011;5240;51.128;4.566;2023-07-31T14:38:56;3.75;;;3.08;;
10387;SDS011;5240;51.128;4.566;2023-07-31T14:41:23;6.47;;;3.90;;
10387;SDS011;5240;51.128;4.566;2023-07-31T14:43:50;5.43;;;4.00;;
10387;SDS011;5240;51.128;4.566;2023-07-31T14:46:18;7.05;;;3.70;;
10387;SDS011;5240;51.128;4.566;2023-07-31T14:48:45;4.97;;;3.83;;
10387;SDS011;5240;51.128;4.566;2023-07-31T14:51:12;5.20;;;3.60;;
10387;SDS011;5240;51.128;4.566;2023-07-31T14:53:40;6.30;;;3.70;;
10387;SDS011;5240;51.128;4.566;2023-07-31T14:56:06;9.50;;;3.97;;
10387;SDS011;5240;51.128;4.566;2023-07-31T14:58:33;6.55;;;4.13;;
10387;SDS011;5240;51.128;4.566;2023-07-31T15:01:00;5.18;;;4.03;;
10387;SDS011;5240;51.128;4.566;2023-07-31T15:03:29;5.47;;;4.00;;